Bemidji, Minnesota
Current Conditions -  °F | °C
As of 7:14 AM on Sunday 21 Dec 2014 (Local Time) from KBJI Reporting Station
Haze Haze  
Wind Chill: 20°   Ceiling: 400
Heat Index: 29°   Visibility: 5mi
Dew Point: 28°   Wind: 10mph
Humidity: 96%   Direction: 180°S
Pressure: 29.78"   Gusts: 18mph
Location:  47.47°N, 94.88°W
Report Text: KBJI 211314Z AUTO 18009G16KT 5SM BR OVC004 M02/M02 A2978 RMK AO2 T10171022
Loading
Personal Weather Stations






























Interactive Weather Map New forecast layout! Learn more

10-Day Weather Forecast

Advertisements
Track Severe Weather on mobile